sensor_id;sensor_type;location;lat;lon;timestamp;P1;durP1;ratioP1;P2;durP2;ratioP2
39956;SDS011;48483;44.640;7.494;2022-11-20T00:00:38;8.93;;;5.70;;
39956;SDS011;48483;44.640;7.494;2022-11-20T00:03:04;11.00;;;7.03;;
39956;SDS011;48483;44.640;7.494;2022-11-20T00:05:31;10.55;;;6.57;;
39956;SDS011;48483;44.640;7.494;2022-11-20T00:08:00;9.77;;;5.97;;
39956;SDS011;48483;44.640;7.494;2022-11-20T00:10:26;7.43;;;5.03;;
39956;SDS011;48483;44.640;7.494;2022-11-20T00:12:53;8.85;;;5.65;;
39956;SDS011;48483;44.640;7.494;2022-11-20T00:15:20;8.70;;;6.38;;
39956;SDS011;48483;44.640;7.494;2022-11-20T00:17:46;9.50;;;5.55;;
39956;SDS011;48483;44.640;7.494;2022-11-20T00:20:13;8.43;;;5.50;;
39956;SDS011;48483;44.640;7.494;2022-11-20T00:22:40;8.27;;;5.45;;
39956;SDS011;48483;44.640;7.494;2022-11-20T00:25:08;8.23;;;5.43;;
39956;SDS011;48483;44.640;7.494;2022-11-20T00:27:35;10.57;;;7.03;;
39956;SDS011;48483;44.640;7.494;2022-11-20T00:30:02;11.70;;;6.45;;
39956;SDS011;48483;44.640;7.494;2022-11-20T00:32:30;8.30;;;5.63;;
39956;SDS011;48483;44.640;7.494;2022-11-20T00:34:56;7.97;;;5.60;;
39956;SDS011;48483;44.640;7.494;2022-11-20T00:37:23;9.15;;;5.68;;
39956;SDS011;48483;44.640;7.494;2022-11-20T00:39:50;8.00;;;5.35;;
39956;SDS011;48483;44.640;7.494;2022-11-20T00:42:18;8.25;;;5.57;;
39956;SDS011;48483;44.640;7.494;2022-11-20T00:44:44;7.38;;;4.88;;
39956;SDS011;48483;44.640;7.494;2022-11-20T00:47:11;8.10;;;5.45;;
39956;SDS011;48483;44.640;7.494;2022-11-20T00:49:38;8.10;;;5.50;;
39956;SDS011;48483;44.640;7.494;2022-11-20T00:52:04;9.25;;;5.32;;
39956;SDS011;48483;44.640;7.494;2022-11-20T00:54:31;8.52;;;4.85;;
39956;SDS011;48483;44.640;7.494;2022-11-20T00:56:58;8.48;;;4.03;;
39956;SDS011;48483;44.640;7.494;2022-11-20T00:59:26;7.15;;;4.38;;
39956;SDS011;48483;44.640;7.494;2022-11-20T01:01:52;6.88;;;4.13;;
39956;SDS011;48483;44.640;7.494;2022-11-20T01:04:19;7.10;;;4.15;;
39956;SDS011;48483;44.640;7.494;2022-11-20T01:06:46;9.05;;;5.15;;
39956;SDS011;48483;44.640;7.494;2022-11-20T01:09:13;6.30;;;4.07;;
39956;SDS011;48483;44.640;7.494;2022-11-20T01:11:41;7.10;;;4.53;;
39956;SDS011;48483;44.640;7.494;2022-11-20T01:14:09;7.10;;;4.20;;
39956;SDS011;48483;44.640;7.494;2022-11-20T01:16:39;8.10;;;4.65;;
39956;SDS011;48483;44.640;7.494;2022-11-20T01:19:08;6.43;;;3.70;;
39956;SDS011;48483;44.640;7.494;2022-11-20T01:21:37;6.95;;;4.43;;
39956;SDS011;48483;44.640;7.494;2022-11-20T01:24:05;6.85;;;4.50;;
39956;SDS011;48483;44.640;7.494;2022-11-20T01:26:34;7.53;;;4.22;;
39956;SDS011;48483;44.640;7.494;2022-11-20T01:29:02;7.63;;;5.38;;
39956;SDS011;48483;44.640;7.494;2022-11-20T01:31:30;7.75;;;4.80;;
39956;SDS011;48483;44.640;7.494;2022-11-20T01:34:00;7.47;;;4.95;;
39956;SDS011;48483;44.640;7.494;2022-11-20T01:36:29;8.02;;;5.13;;
39956;SDS011;48483;44.640;7.494;2022-11-20T01:38:57;8.35;;;5.63;;
39956;SDS011;48483;44.640;7.494;2022-11-20T01:41:25;7.20;;;4.82;;
39956;SDS011;48483;44.640;7.494;2022-11-20T01:44:13;7.70;;;5.07;;
39956;SDS011;48483;44.640;7.494;2022-11-20T01:46:53;7.93;;;5.53;;
39956;SDS011;48483;44.640;7.494;2022-11-20T01:49:26;8.52;;;5.20;;
39956;SDS011;48483;44.640;7.494;2022-11-20T01:52:00;8.90;;;6.18;;
39956;SDS011;48483;44.640;7.494;2022-11-20T01:54:30;8.13;;;5.97;;
39956;SDS011;48483;44.640;7.494;2022-11-20T01:57:02;8.15;;;5.45;;
39956;SDS011;48483;44.640;7.494;2022-11-20T01:59:30;8.75;;;5.75;;
39956;SDS011;48483;44.640;7.494;2022-11-20T02:01:57;10.75;;;6.15;;
39956;SDS011;48483;44.640;7.494;2022-11-20T02:04:26;10.93;;;6.07;;
39956;SDS011;48483;44.640;7.494;2022-11-20T02:06:53;12.43;;;6.45;;
39956;SDS011;48483;44.640;7.494;2022-11-20T02:09:25;13.13;;;6.47;;
39956;SDS011;48483;44.640;7.494;2022-11-20T02:11:52;12.98;;;7.43;;
39956;SDS011;48483;44.640;7.494;2022-11-20T02:14:19;13.50;;;6.65;;
39956;SDS011;48483;44.640;7.494;2022-11-20T02:16:47;9.43;;;5.45;;
39956;SDS011;48483;44.640;7.494;2022-11-20T02:19:16;8.63;;;5.78;;
39956;SDS011;48483;44.640;7.494;2022-11-20T02:21:51;8.40;;;4.30;;
39956;SDS011;48483;44.640;7.494;2022-11-20T02:24:25;9.77;;;4.00;;
39956;SDS011;48483;44.640;7.494;2022-11-20T02:26:53;7.95;;;4.45;;
39956;SDS011;48483;44.640;7.494;2022-11-20T02:29:23;8.82;;;4.30;;
39956;SDS011;48483;44.640;7.494;2022-11-20T02:31:52;6.97;;;3.80;;
39956;SDS011;48483;44.640;7.494;2022-11-20T02:34:22;7.83;;;4.67;;
39956;SDS011;48483;44.640;7.494;2022-11-20T02:36:48;11.95;;;4.93;;
39956;SDS011;48483;44.640;7.494;2022-11-20T02:39:16;9.00;;;4.35;;
39956;SDS011;48483;44.640;7.494;2022-11-20T02:41:45;7.15;;;4.22;;
39956;SDS011;48483;44.640;7.494;2022-11-20T02:44:12;6.93;;;4.00;;
39956;SDS011;48483;44.640;7.494;2022-11-20T02:46:39;7.72;;;4.20;;
39956;SDS011;48483;44.640;7.494;2022-11-20T02:49:06;7.85;;;4.18;;
39956;SDS011;48483;44.640;7.494;2022-11-20T02:51:32;9.60;;;4.75;;
39956;SDS011;48483;44.640;7.494;2022-11-20T02:53:59;8.43;;;4.30;;
39956;SDS011;48483;44.640;7.494;2022-11-20T02:56:26;10.82;;;4.78;;
39956;SDS011;48483;44.640;7.494;2022-11-20T02:58:54;7.25;;;4.22;;
39956;SDS011;48483;44.640;7.494;2022-11-20T03:01:21;8.32;;;4.13;;
39956;SDS011;48483;44.640;7.494;2022-11-20T03:03:48;8.52;;;4.25;;
39956;SDS011;48483;44.640;7.494;2022-11-20T03:06:15;6.72;;;3.53;;
39956;SDS011;48483;44.640;7.494;2022-11-20T03:08:42;6.72;;;4.18;;
39956;SDS011;48483;44.640;7.494;2022-11-20T03:11:09;6.85;;;3.47;;
39956;SDS011;48483;44.640;7.494;2022-11-20T03:13:36;8.68;;;4.65;;
39956;SDS011;48483;44.640;7.494;2022-11-20T03:16:08;8.18;;;5.35;;
39956;SDS011;48483;44.640;7.494;2022-11-20T03:18:37;6.45;;;4.00;;
39956;SDS011;48483;44.640;7.494;2022-11-20T03:21:04;9.63;;;4.45;;
39956;SDS011;48483;44.640;7.494;2022-11-20T03:23:31;6.38;;;4.13;;
39956;SDS011;48483;44.640;7.494;2022-11-20T03:26:08;7.80;;;4.30;;
39956;SDS011;48483;44.640;7.494;2022-11-20T03:28:37;7.05;;;4.38;;
39956;SDS011;48483;44.640;7.494;2022-11-20T03:31:05;8.27;;;4.97;;
39956;SDS011;48483;44.640;7.494;2022-11-20T03:33:34;7.72;;;3.97;;
39956;SDS011;48483;44.640;7.494;2022-11-20T03:36:01;8.52;;;4.82;;
39956;SDS011;48483;44.640;7.494;2022-11-20T03:38:29;7.43;;;4.22;;
39956;SDS011;48483;44.640;7.494;2022-11-20T03:40:58;7.28;;;4.75;;
39956;SDS011;48483;44.640;7.494;2022-11-20T03:43:26;8.27;;;4.95;;
39956;SDS011;48483;44.640;7.494;2022-11-20T03:45:53;7.60;;;4.95;;
39956;SDS011;48483;44.640;7.494;2022-11-20T03:48:21;7.60;;;4.65;;
39956;SDS011;48483;44.640;7.494;2022-11-20T03:50:47;7.30;;;4.55;;
39956;SDS011;48483;44.640;7.494;2022-11-20T03:53:14;7.05;;;4.45;;
39956;SDS011;48483;44.640;7.494;2022-11-20T03:55:41;6.07;;;4.32;;
39956;SDS011;48483;44.640;7.494;2022-11-20T03:58:08;6.88;;;4.43;;
39956;SDS011;48483;44.640;7.494;2022-11-20T04:00:35;7.45;;;5.20;;
39956;SDS011;48483;44.640;7.494;2022-11-20T04:03:02;7.28;;;4.03;;
39956;SDS011;48483;44.640;7.494;2022-11-20T04:05:30;6.45;;;4.00;;
39956;SDS011;48483;44.640;7.494;2022-11-20T04:07:59;6.50;;;4.00;;
39956;SDS011;48483;44.640;7.494;2022-11-20T04:10:25;5.55;;;3.40;;
39956;SDS011;48483;44.640;7.494;2022-11-20T04:12:52;8.02;;;4.45;;
39956;SDS011;48483;44.640;7.494;2022-11-20T04:15:19;7.85;;;4.53;;
39956;SDS011;48483;44.640;7.494;2022-11-20T04:17:45;7.82;;;4.72;;
39956;SDS011;48483;44.640;7.494;2022-11-20T04:20:12;6.80;;;4.30;;
39956;SDS011;48483;44.640;7.494;2022-11-20T04:22:40;7.57;;;4.60;;
39956;SDS011;48483;44.640;7.494;2022-11-20T04:25:07;6.75;;;4.57;;
39956;SDS011;48483;44.640;7.494;2022-11-20T04:27:34;7.55;;;4.82;;
39956;SDS011;48483;44.640;7.494;2022-11-20T04:30:01;9.77;;;4.63;;
39956;SDS011;48483;44.640;7.494;2022-11-20T04:32:28;10.35;;;5.32;;
39956;SDS011;48483;44.640;7.494;2022-11-20T04:34:54;8.57;;;5.07;;
39956;SDS011;48483;44.640;7.494;2022-11-20T04:37:21;8.07;;;5.18;;
39956;SDS011;48483;44.640;7.494;2022-11-20T04:39:49;8.23;;;5.22;;
39956;SDS011;48483;44.640;7.494;2022-11-20T04:42:15;8.55;;;5.22;;
39956;SDS011;48483;44.640;7.494;2022-11-20T04:44:54;7.68;;;4.97;;
39956;SDS011;48483;44.640;7.494;2022-11-20T04:47:21;8.27;;;5.35;;
39956;SDS011;48483;44.640;7.494;2022-11-20T04:49:48;10.27;;;4.65;;
39956;SDS011;48483;44.640;7.494;2022-11-20T04:52:15;7.60;;;5.32;;
39956;SDS011;48483;44.640;7.494;2022-11-20T04:54:41;7.93;;;4.47;;
39956;SDS011;48483;44.640;7.494;2022-11-20T04:57:09;11.40;;;5.72;;
39956;SDS011;48483;44.640;7.494;2022-11-20T04:59:38;7.93;;;4.47;;
39956;SDS011;48483;44.640;7.494;2022-11-20T05:02:04;9.50;;;5.90;;
39956;SDS011;48483;44.640;7.494;2022-11-20T05:04:31;8.35;;;4.63;;
39956;SDS011;48483;44.640;7.494;2022-11-20T05:06:58;9.48;;;5.40;;
39956;SDS011;48483;44.640;7.494;2022-11-20T05:09:24;9.40;;;5.22;;
39956;SDS011;48483;44.640;7.494;2022-11-20T05:11:51;9.13;;;5.75;;
39956;SDS011;48483;44.640;7.494;2022-11-20T05:14:19;9.48;;;5.82;;
39956;SDS011;48483;44.640;7.494;2022-11-20T05:16:46;8.60;;;5.35;;
39956;SDS011;48483;44.640;7.494;2022-11-20T05:19:12;9.60;;;5.50;;
39956;SDS011;48483;44.640;7.494;2022-11-20T05:21:39;9.63;;;5.82;;
39956;SDS011;48483;44.640;7.494;2022-11-20T05:24:06;12.40;;;6.40;;
39956;SDS011;48483;44.640;7.494;2022-11-20T05:26:32;11.25;;;6.10;;
39956;SDS011;48483;44.640;7.494;2022-11-20T05:28:59;12.20;;;5.65;;
39956;SDS011;48483;44.640;7.494;2022-11-20T05:31:27;11.95;;;6.75;;
39956;SDS011;48483;44.640;7.494;2022-11-20T05:33:54;11.93;;;7.10;;
39956;SDS011;48483;44.640;7.494;2022-11-20T05:36:21;11.55;;;6.25;;
39956;SDS011;48483;44.640;7.494;2022-11-20T05:38:48;13.57;;;6.57;;
39956;SDS011;48483;44.640;7.494;2022-11-20T05:41:16;11.60;;;6.47;;
39956;SDS011;48483;44.640;7.494;2022-11-20T05:43:44;10.93;;;6.50;;
39956;SDS011;48483;44.640;7.494;2022-11-20T05:46:12;12.65;;;7.50;;
39956;SDS011;48483;44.640;7.494;2022-11-20T05:48:42;15.30;;;8.13;;
39956;SDS011;48483;44.640;7.494;2022-11-20T05:51:10;14.10;;;7.43;;
39956;SDS011;48483;44.640;7.494;2022-11-20T05:53:38;13.88;;;7.57;;
39956;SDS011;48483;44.640;7.494;2022-11-20T05:56:06;13.50;;;6.60;;
39956;SDS011;48483;44.640;7.494;2022-11-20T05:58:35;13.73;;;7.50;;
39956;SDS011;48483;44.640;7.494;2022-11-20T06:01:03;13.98;;;7.05;;
39956;SDS011;48483;44.640;7.494;2022-11-20T06:03:31;13.48;;;7.43;;
39956;SDS011;48483;44.640;7.494;2022-11-20T06:06:00;13.00;;;7.13;;
39956;SDS011;48483;44.640;7.494;2022-11-20T06:08:27;15.10;;;7.25;;
39956;SDS011;48483;44.640;7.494;2022-11-20T06:10:54;12.95;;;6.93;;
39956;SDS011;48483;44.640;7.494;2022-11-20T06:13:20;13.65;;;7.28;;
39956;SDS011;48483;44.640;7.494;2022-11-20T06:15:48;13.55;;;7.22;;
39956;SDS011;48483;44.640;7.494;2022-11-20T06:18:15;14.00;;;7.38;;
39956;SDS011;48483;44.640;7.494;2022-11-20T06:20:42;13.57;;;7.60;;
39956;SDS011;48483;44.640;7.494;2022-11-20T06:23:10;13.20;;;7.60;;
39956;SDS011;48483;44.640;7.494;2022-11-20T06:25:37;14.10;;;7.43;;
39956;SDS011;48483;44.640;7.494;2022-11-20T06:28:04;14.55;;;8.35;;
39956;SDS011;48483;44.640;7.494;2022-11-20T06:30:31;19.55;;;8.73;;
39956;SDS011;48483;44.640;7.494;2022-11-20T06:32:58;12.88;;;7.15;;
39956;SDS011;48483;44.640;7.494;2022-11-20T06:35:24;15.70;;;8.38;;
39956;SDS011;48483;44.640;7.494;2022-11-20T06:37:51;13.52;;;7.72;;
39956;SDS011;48483;44.640;7.494;2022-11-20T06:40:19;13.10;;;7.65;;
39956;SDS011;48483;44.640;7.494;2022-11-20T06:42:46;14.93;;;8.00;;
39956;SDS011;48483;44.640;7.494;2022-11-20T06:45:12;13.68;;;8.10;;
39956;SDS011;48483;44.640;7.494;2022-11-20T06:47:39;16.85;;;10.02;;
39956;SDS011;48483;44.640;7.494;2022-11-20T06:50:06;14.70;;;8.65;;
39956;SDS011;48483;44.640;7.494;2022-11-20T06:52:33;15.75;;;9.07;;
39956;SDS011;48483;44.640;7.494;2022-11-20T06:54:59;15.43;;;9.40;;
39956;SDS011;48483;44.640;7.494;2022-11-20T06:57:27;14.05;;;8.95;;
39956;SDS011;48483;44.640;7.494;2022-11-20T06:59:54;15.13;;;8.45;;
39956;SDS011;48483;44.640;7.494;2022-11-20T07:02:21;14.80;;;8.55;;
39956;SDS011;48483;44.640;7.494;2022-11-20T07:04:48;18.08;;;10.25;;
39956;SDS011;48483;44.640;7.494;2022-11-20T07:07:14;16.75;;;8.95;;
39956;SDS011;48483;44.640;7.494;2022-11-20T07:09:41;16.88;;;9.52;;
39956;SDS011;48483;44.640;7.494;2022-11-20T07:12:07;15.63;;;9.63;;
39956;SDS011;48483;44.640;7.494;2022-11-20T07:14:36;14.35;;;8.57;;
39956;SDS011;48483;44.640;7.494;2022-11-20T07:17:02;19.27;;;9.02;;
39956;SDS011;48483;44.640;7.494;2022-11-20T07:19:29;15.95;;;9.02;;
39956;SDS011;48483;44.640;7.494;2022-11-20T07:21:56;14.55;;;8.88;;
39956;SDS011;48483;44.640;7.494;2022-11-20T07:24:22;16.55;;;10.18;;
39956;SDS011;48483;44.640;7.494;2022-11-20T07:26:49;17.23;;;10.25;;
39956;SDS011;48483;44.640;7.494;2022-11-20T07:29:16;16.38;;;10.70;;
39956;SDS011;48483;44.640;7.494;2022-11-20T07:31:44;22.25;;;11.90;;
39956;SDS011;48483;44.640;7.494;2022-11-20T07:34:10;18.08;;;11.35;;
39956;SDS011;48483;44.640;7.494;2022-11-20T07:36:37;14.82;;;9.23;;
39956;SDS011;48483;44.640;7.494;2022-11-20T07:39:05;16.42;;;10.20;;
39956;SDS011;48483;44.640;7.494;2022-11-20T07:41:31;16.85;;;10.57;;
39956;SDS011;48483;44.640;7.494;2022-11-20T07:43:58;15.13;;;8.63;;
39956;SDS011;48483;44.640;7.494;2022-11-20T07:46:25;21.35;;;9.77;;
39956;SDS011;48483;44.640;7.494;2022-11-20T07:48:53;20.52;;;9.70;;
39956;SDS011;48483;44.640;7.494;2022-11-20T07:51:19;16.38;;;9.70;;
39956;SDS011;48483;44.640;7.494;2022-11-20T07:53:46;15.98;;;10.88;;
39956;SDS011;48483;44.640;7.494;2022-11-20T07:56:12;16.33;;;9.73;;
39956;SDS011;48483;44.640;7.494;2022-11-20T07:58:39;17.75;;;9.88;;
39956;SDS011;48483;44.640;7.494;2022-11-20T08:01:06;15.98;;;9.75;;
39956;SDS011;48483;44.640;7.494;2022-11-20T08:03:33;17.88;;;12.20;;
39956;SDS011;48483;44.640;7.494;2022-11-20T08:06:02;23.17;;;14.82;;
39956;SDS011;48483;44.640;7.494;2022-11-20T08:08:29;18.98;;;12.82;;
39956;SDS011;48483;44.640;7.494;2022-11-20T08:10:56;22.05;;;14.23;;
39956;SDS011;48483;44.640;7.494;2022-11-20T08:13:43;16.92;;;10.45;;
39956;SDS011;48483;44.640;7.494;2022-11-20T08:16:28;18.95;;;11.18;;
39956;SDS011;48483;44.640;7.494;2022-11-20T08:18:55;16.50;;;10.18;;
39956;SDS011;48483;44.640;7.494;2022-11-20T08:21:23;16.00;;;10.75;;
39956;SDS011;48483;44.640;7.494;2022-11-20T08:23:50;13.77;;;9.98;;
39956;SDS011;48483;44.640;7.494;2022-11-20T08:26:17;15.80;;;10.00;;
39956;SDS011;48483;44.640;7.494;2022-11-20T08:28:43;17.92;;;11.20;;
39956;SDS011;48483;44.640;7.494;2022-11-20T08:31:11;12.30;;;8.63;;
39956;SDS011;48483;44.640;7.494;2022-11-20T08:33:37;10.02;;;6.85;;
39956;SDS011;48483;44.640;7.494;2022-11-20T08:36:05;9.98;;;6.38;;
39956;SDS011;48483;44.640;7.494;2022-11-20T08:38:33;10.48;;;6.13;;
39956;SDS011;48483;44.640;7.494;2022-11-20T08:41:00;8.68;;;5.65;;
39956;SDS011;48483;44.640;7.494;2022-11-20T08:44:04;8.95;;;5.43;;
39956;SDS011;48483;44.640;7.494;2022-11-20T08:46:33;8.80;;;5.57;;
39956;SDS011;48483;44.640;7.494;2022-11-20T08:49:02;11.45;;;5.93;;
39956;SDS011;48483;44.640;7.494;2022-11-20T08:51:29;9.73;;;5.38;;
39956;SDS011;48483;44.640;7.494;2022-11-20T08:53:57;7.55;;;4.90;;
39956;SDS011;48483;44.640;7.494;2022-11-20T08:56:24;10.55;;;5.50;;
39956;SDS011;48483;44.640;7.494;2022-11-20T08:58:51;9.30;;;5.45;;
39956;SDS011;48483;44.640;7.494;2022-11-20T09:01:18;8.40;;;4.75;;
39956;SDS011;48483;44.640;7.494;2022-11-20T09:03:47;7.50;;;4.55;;
39956;SDS011;48483;44.640;7.494;2022-11-20T09:06:13;7.55;;;4.03;;
39956;SDS011;48483;44.640;7.494;2022-11-20T09:08:41;6.50;;;4.22;;
39956;SDS011;48483;44.640;7.494;2022-11-20T09:11:09;6.25;;;3.58;;
39956;SDS011;48483;44.640;7.494;2022-11-20T09:13:36;5.13;;;3.22;;
39956;SDS011;48483;44.640;7.494;2022-11-20T09:16:04;5.70;;;3.53;;
39956;SDS011;48483;44.640;7.494;2022-11-20T09:18:33;5.22;;;2.65;;
39956;SDS011;48483;44.640;7.494;2022-11-20T09:21:02;3.95;;;2.47;;
39956;SDS011;48483;44.640;7.494;2022-11-20T09:23:31;4.60;;;2.83;;
39956;SDS011;48483;44.640;7.494;2022-11-20T09:26:01;4.88;;;2.80;;
39956;SDS011;48483;44.640;7.494;2022-11-20T09:28:29;6.32;;;2.97;;
39956;SDS011;48483;44.640;7.494;2022-11-20T09:30:56;5.28;;;2.70;;
39956;SDS011;48483;44.640;7.494;2022-11-20T09:33:23;6.95;;;3.30;;
39956;SDS011;48483;44.640;7.494;2022-11-20T09:35:49;4.95;;;2.90;;
39956;SDS011;48483;44.640;7.494;2022-11-20T09:38:16;5.43;;;3.00;;
39956;SDS011;48483;44.640;7.494;2022-11-20T09:40:44;6.15;;;3.25;;
39956;SDS011;48483;44.640;7.494;2022-11-20T09:43:17;6.55;;;4.50;;
39956;SDS011;48483;44.640;7.494;2022-11-20T09:45:53;5.07;;;3.63;;
39956;SDS011;48483;44.640;7.494;2022-11-20T09:48:29;6.07;;;3.90;;
39956;SDS011;48483;44.640;7.494;2022-11-20T09:51:05;6.40;;;4.45;;
39956;SDS011;48483;44.640;7.494;2022-11-20T09:53:44;7.28;;;3.97;;
39956;SDS011;48483;44.640;7.494;2022-11-20T09:56:18;6.97;;;4.22;;
39956;SDS011;48483;44.640;7.494;2022-11-20T09:58:47;6.13;;;3.70;;
39956;SDS011;48483;44.640;7.494;2022-11-20T10:03:48;6.85;;;5.07;;
39956;SDS011;48483;44.640;7.494;2022-11-20T10:06:21;7.80;;;5.32;;
39956;SDS011;48483;44.640;7.494;2022-11-20T10:08:55;6.63;;;4.00;;
39956;SDS011;48483;44.640;7.494;2022-11-20T10:11:32;7.97;;;4.60;;
39956;SDS011;48483;44.640;7.494;2022-11-20T10:14:06;5.55;;;4.25;;
39956;SDS011;48483;44.640;7.494;2022-11-20T10:16:44;6.32;;;4.55;;
39956;SDS011;48483;44.640;7.494;2022-11-20T10:19:23;9.43;;;5.13;;
39956;SDS011;48483;44.640;7.494;2022-11-20T10:22:13;10.77;;;5.97;;
39956;SDS011;48483;44.640;7.494;2022-11-20T10:24:51;8.23;;;5.25;;
39956;SDS011;48483;44.640;7.494;2022-11-20T10:27:27;7.80;;;5.00;;
39956;SDS011;48483;44.640;7.494;2022-11-20T10:30:20;8.40;;;5.05;;
39956;SDS011;48483;44.640;7.494;2022-11-20T10:32:52;8.18;;;4.78;;
39956;SDS011;48483;44.640;7.494;2022-11-20T10:35:28;6.85;;;4.28;;
39956;SDS011;48483;44.640;7.494;2022-11-20T10:38:00;7.82;;;4.20;;
39956;SDS011;48483;44.640;7.494;2022-11-20T10:40:34;6.93;;;4.32;;
39956;SDS011;48483;44.640;7.494;2022-11-20T10:43:06;8.68;;;5.15;;
39956;SDS011;48483;44.640;7.494;2022-11-20T10:45:42;7.20;;;4.57;;
39956;SDS011;48483;44.640;7.494;2022-11-20T10:48:17;7.45;;;5.03;;
39956;SDS011;48483;44.640;7.494;2022-11-20T10:50:54;9.70;;;4.68;;
39956;SDS011;48483;44.640;7.494;2022-11-20T10:53:40;7.20;;;4.50;;
39956;SDS011;48483;44.640;7.494;2022-11-20T10:56:23;8.90;;;5.13;;
39956;SDS011;48483;44.640;7.494;2022-11-20T10:59:12;7.15;;;4.65;;
39956;SDS011;48483;44.640;7.494;2022-11-20T11:02:14;6.68;;;4.03;;
39956;SDS011;48483;44.640;7.494;2022-11-20T11:04:44;8.10;;;4.88;;
39956;SDS011;48483;44.640;7.494;2022-11-20T11:07:15;7.47;;;4.30;;
39956;SDS011;48483;44.640;7.494;2022-11-20T11:09:44;7.57;;;4.55;;
39956;SDS011;48483;44.640;7.494;2022-11-20T11:12:14;6.28;;;4.55;;
39956;SDS011;48483;44.640;7.494;2022-11-20T11:14:47;7.35;;;3.97;;
39956;SDS011;48483;44.640;7.494;2022-11-20T11:17:22;8.80;;;4.97;;
39956;SDS011;48483;44.640;7.494;2022-11-20T11:20:01;8.13;;;4.40;;
39956;SDS011;48483;44.640;7.494;2022-11-20T11:22:30;9.43;;;5.25;;
39956;SDS011;48483;44.640;7.494;2022-11-20T11:24:58;9.20;;;4.82;;
39956;SDS011;48483;44.640;7.494;2022-11-20T11:27:25;8.70;;;5.30;;
39956;SDS011;48483;44.640;7.494;2022-11-20T11:30:02;7.22;;;4.47;;
39956;SDS011;48483;44.640;7.494;2022-11-20T11:32:37;8.55;;;5.13;;
39956;SDS011;48483;44.640;7.494;2022-11-20T11:35:07;8.80;;;5.18;;
39956;SDS011;48483;44.640;7.494;2022-11-20T11:37:45;8.80;;;5.63;;
39956;SDS011;48483;44.640;7.494;2022-11-20T11:40:14;8.10;;;5.57;;
39956;SDS011;48483;44.640;7.494;2022-11-20T11:42:42;8.52;;;4.90;;
39956;SDS011;48483;44.640;7.494;2022-11-20T11:45:11;8.30;;;5.50;;
39956;SDS011;48483;44.640;7.494;2022-11-20T11:47:44;7.40;;;5.05;;
39956;SDS011;48483;44.640;7.494;2022-11-20T11:50:16;10.05;;;5.28;;
39956;SDS011;48483;44.640;7.494;2022-11-20T11:55:14;13.02;;;6.72;;
39956;SDS011;48483;44.640;7.494;2022-11-20T11:57:47;13.32;;;7.55;;
39956;SDS011;48483;44.640;7.494;2022-11-20T12:00:20;11.88;;;5.97;;
39956;SDS011;48483;44.640;7.494;2022-11-20T12:02:53;14.00;;;5.95;;
39956;SDS011;48483;44.640;7.494;2022-11-20T12:05:29;9.57;;;5.00;;
39956;SDS011;48483;44.640;7.494;2022-11-20T12:08:05;9.55;;;5.20;;
39956;SDS011;48483;44.640;7.494;2022-11-20T12:10:39;8.10;;;4.85;;
39956;SDS011;48483;44.640;7.494;2022-11-20T12:13:15;10.32;;;6.00;;
39956;SDS011;48483;44.640;7.494;2022-11-20T12:15:53;9.00;;;4.82;;
39956;SDS011;48483;44.640;7.494;2022-11-20T12:18:20;11.15;;;6.03;;
39956;SDS011;48483;44.640;7.494;2022-11-20T12:20:53;13.30;;;6.60;;
39956;SDS011;48483;44.640;7.494;2022-11-20T12:23:33;7.90;;;4.25;;
39956;SDS011;48483;44.640;7.494;2022-11-20T12:26:08;12.18;;;6.18;;
39956;SDS011;48483;44.640;7.494;2022-11-20T12:28:50;9.38;;;4.38;;
39956;SDS011;48483;44.640;7.494;2022-11-20T12:31:30;9.30;;;4.85;;
39956;SDS011;48483;44.640;7.494;2022-11-20T12:34:09;8.18;;;4.70;;
39956;SDS011;48483;44.640;7.494;2022-11-20T12:36:48;6.90;;;4.45;;
39956;SDS011;48483;44.640;7.494;2022-11-20T12:39:32;5.88;;;3.13;;
39956;SDS011;48483;44.640;7.494;2022-11-20T12:42:05;5.70;;;3.22;;
39956;SDS011;48483;44.640;7.494;2022-11-20T12:48:19;3.95;;;2.20;;
39956;SDS011;48483;44.640;7.494;2022-11-20T12:51:03;4.50;;;2.78;;
39956;SDS011;48483;44.640;7.494;2022-11-20T12:53:43;4.05;;;2.25;;
39956;SDS011;48483;44.640;7.494;2022-11-20T12:56:21;4.70;;;1.65;;
39956;SDS011;48483;44.640;7.494;2022-11-20T12:58:58;3.33;;;1.75;;
39956;SDS011;48483;44.640;7.494;2022-11-20T13:01:36;3.90;;;2.22;;
39956;SDS011;48483;44.640;7.494;2022-11-20T13:04:12;3.30;;;1.77;;
39956;SDS011;48483;44.640;7.494;2022-11-20T13:06:55;2.65;;;1.42;;
39956;SDS011;48483;44.640;7.494;2022-11-20T13:09:24;4.55;;;1.52;;
39956;SDS011;48483;44.640;7.494;2022-11-20T13:11:55;3.65;;;1.90;;
39956;SDS011;48483;44.640;7.494;2022-11-20T13:14:31;3.70;;;2.15;;
39956;SDS011;48483;44.640;7.494;2022-11-20T13:17:04;3.03;;;1.65;;
39956;SDS011;48483;44.640;7.494;2022-11-20T13:19:35;3.55;;;1.98;;
39956;SDS011;48483;44.640;7.494;2022-11-20T13:22:02;3.40;;;1.70;;
39956;SDS011;48483;44.640;7.494;2022-11-20T13:24:31;1.90;;;1.20;;
39956;SDS011;48483;44.640;7.494;2022-11-20T13:27:02;3.67;;;1.98;;
39956;SDS011;48483;44.640;7.494;2022-11-20T13:29:31;3.35;;;1.90;;
39956;SDS011;48483;44.640;7.494;2022-11-20T13:32:05;3.35;;;1.42;;
39956;SDS011;48483;44.640;7.494;2022-11-20T13:34:38;3.20;;;1.73;;
39956;SDS011;48483;44.640;7.494;2022-11-20T13:37:23;2.72;;;1.52;;
39956;SDS011;48483;44.640;7.494;2022-11-20T13:40:04;4.57;;;2.25;;
39956;SDS011;48483;44.640;7.494;2022-11-20T13:42:37;3.10;;;1.50;;
39956;SDS011;48483;44.640;7.494;2022-11-20T13:45:09;5.38;;;2.72;;
39956;SDS011;48483;44.640;7.494;2022-11-20T13:47:47;3.15;;;1.88;;
39956;SDS011;48483;44.640;7.494;2022-11-20T13:50:14;3.53;;;1.85;;
39956;SDS011;48483;44.640;7.494;2022-11-20T13:52:43;14.50;;;6.07;;
39956;SDS011;48483;44.640;7.494;2022-11-20T13:55:21;41.90;;;18.35;;
39956;SDS011;48483;44.640;7.494;2022-11-20T14:00:44;21.98;;;9.75;;
39956;SDS011;48483;44.640;7.494;2022-11-20T14:03:17;27.42;;;12.90;;
39956;SDS011;48483;44.640;7.494;2022-11-20T14:05:49;15.02;;;8.55;;
39956;SDS011;48483;44.640;7.494;2022-11-20T14:08:23;14.90;;;7.22;;
39956;SDS011;48483;44.640;7.494;2022-11-20T14:11:06;13.63;;;6.68;;
39956;SDS011;48483;44.640;7.494;2022-11-20T14:13:50;20.45;;;8.82;;
39956;SDS011;48483;44.640;7.494;2022-11-20T14:16:26;11.48;;;5.90;;
39956;SDS011;48483;44.640;7.494;2022-11-20T14:18:53;11.43;;;6.07;;
39956;SDS011;48483;44.640;7.494;2022-11-20T14:21:22;13.02;;;5.85;;
39956;SDS011;48483;44.640;7.494;2022-11-20T14:23:52;14.57;;;6.82;;
39956;SDS011;48483;44.640;7.494;2022-11-20T14:26:20;17.30;;;8.45;;
39956;SDS011;48483;44.640;7.494;2022-11-20T14:28:48;21.80;;;9.68;;
39956;SDS011;48483;44.640;7.494;2022-11-20T14:31:18;19.00;;;9.35;;
39956;SDS011;48483;44.640;7.494;2022-11-20T14:33:49;18.05;;;8.23;;
39956;SDS011;48483;44.640;7.494;2022-11-20T14:36:17;13.68;;;6.88;;
39956;SDS011;48483;44.640;7.494;2022-11-20T14:38:47;15.43;;;7.67;;
39956;SDS011;48483;44.640;7.494;2022-11-20T14:41:16;8.85;;;4.20;;
39956;SDS011;48483;44.640;7.494;2022-11-20T14:46:13;12.68;;;6.07;;
39956;SDS011;48483;44.640;7.494;2022-11-20T14:48:42;15.55;;;7.00;;
39956;SDS011;48483;44.640;7.494;2022-11-20T14:51:11;14.43;;;6.90;;
39956;SDS011;48483;44.640;7.494;2022-11-20T14:53:49;14.32;;;7.70;;
39956;SDS011;48483;44.640;7.494;2022-11-20T14:56:20;14.23;;;5.63;;
39956;SDS011;48483;44.640;7.494;2022-11-20T14:58:56;9.50;;;4.95;;
39956;SDS011;48483;44.640;7.494;2022-11-20T15:01:25;9.93;;;5.40;;
39956;SDS011;48483;44.640;7.494;2022-11-20T15:03:58;11.60;;;5.50;;
39956;SDS011;48483;44.640;7.494;2022-11-20T15:06:26;10.32;;;4.85;;
39956;SDS011;48483;44.640;7.494;2022-11-20T15:08:53;9.60;;;5.40;;
39956;SDS011;48483;44.640;7.494;2022-11-20T15:11:22;11.30;;;5.68;;
39956;SDS011;48483;44.640;7.494;2022-11-20T15:13:55;8.98;;;5.63;;